Time;durP1;ratioP1;P1;durP2;ratioP2;P2;SDS_P1;SDS_P2;PMS_P1;PMS_P2;Temp;Humidity;BMP_temperature;BMP_pressure;BME280_temperature;BME280_humidity;BME280_pressure;Samples;Min_cycle;Max_cycle;Signal;HPM_P1;HPM_P2
2021/11/28 00:02:21;;;;;;;48.42;31.00;;;8.60;99.90;;;;;;6131470;23;20159;-94
2021/11/28 00:04:50;;;;;;;48.47;30.48;;;8.60;99.90;;;;;;6139176;23;20163;-96
2021/11/28 00:07:30;;;;;;;40.25;25.00;;;8.60;99.90;;;;;;6140970;23;20263;-96
2021/11/28 00:12:37;;;;;;;42.75;28.38;;;8.60;99.90;;;;;;6174650;23;20156;-95
2021/11/28 00:15:14;;;;;;;47.40;27.25;;;8.60;99.90;;;;;;6145906;23;20218;-94
2021/11/28 00:17:40;;;;;;;43.60;26.30;;;8.60;99.90;;;;;;6134600;23;20151;-92
2021/11/28 00:20:09;;;;;;;40.85;25.42;;;8.60;99.90;;;;;;6135480;23;20737;-95
2021/11/28 00:22:37;;;;;;;40.65;26.60;;;8.60;99.90;;;;;;6137126;23;20159;-94
2021/11/28 00:25:09;;;;;;;43.75;27.63;;;8.60;99.90;;;;;;6150190;23;20183;-95
2021/11/28 00:27:36;;;;;;;57.03;31.85;;;8.60;99.90;;;;;;6131641;23;20155;-93
2021/11/28 00:30:04;;;;;;;76.97;39.28;;;8.60;99.90;;;;;;6132033;23;20183;-94
2021/11/28 00:32:30;;;;;;;143.65;64.50;;;8.60;99.90;;;;;;6136778;23;20159;-95
2021/11/28 00:34:56;;;;;;;139.93;60.20;;;8.50;99.90;;;;;;6154016;23;20263;-96
2021/11/28 00:37:22;;;;;;;54.53;30.42;;;8.50;99.90;;;;;;6155609;23;20381;-96
2021/11/28 00:39:49;;;;;;;43.80;27.80;;;8.50;99.90;;;;;;6198184;23;20534;-95
2021/11/28 00:42:15;;;;;;;45.67;26.40;;;8.50;99.90;;;;;;6194851;23;20366;-95
2021/11/28 00:44:42;;;;;;;47.47;27.50;;;8.50;99.90;;;;;;6188135;23;20163;-94
2021/11/28 00:47:08;;;;;;;40.65;26.10;;;8.50;99.90;;;;;;6185508;23;20162;-96
2021/11/28 00:49:36;;;;;;;42.60;27.33;;;8.60;99.90;;;;;;6186532;23;20170;-95
2021/11/28 00:52:02;;;;;;;45.33;28.63;;;8.60;99.90;;;;;;6190631;23;20186;-94
2021/11/28 00:54:29;;;;;;;42.90;27.00;;;8.50;99.90;;;;;;6187761;23;20205;-94
2021/11/28 00:56:56;;;;;;;45.10;28.10;;;8.60;99.90;;;;;;6187289;23;20269;-96
2021/11/28 00:59:22;;;;;;;45.80;28.80;;;8.50;99.90;;;;;;6187588;23;20170;-96
2021/11/28 01:01:48;;;;;;;41.20;28.13;;;8.60;99.90;;;;;;6187297;23;20193;-96
2021/11/28 01:04:14;;;;;;;44.88;28.48;;;8.50;99.90;;;;;;6190762;23;20374;-93
2021/11/28 01:06:40;;;;;;;47.13;30.17;;;8.50;99.90;;;;;;6187631;23;20491;-94
2021/11/28 01:09:09;;;;;;;49.70;30.40;;;8.50;99.90;;;;;;6187206;23;20174;-95
2021/11/28 01:11:35;;;;;;;50.03;31.45;;;8.50;99.90;;;;;;6187133;23;20175;-93
2021/11/28 01:14:01;;;;;;;49.42;31.42;;;8.50;99.90;;;;;;6187081;23;20573;-96
2021/11/28 01:16:27;;;;;;;50.15;31.40;;;8.50;99.90;;;;;;6187517;23;20174;-94
2021/11/28 01:18:54;;;;;;;59.63;40.63;;;8.50;99.90;;;;;;6190015;23;20166;-94
2021/11/28 01:21:20;;;;;;;52.00;33.28;;;8.50;99.90;;;;;;6187163;23;20651;-96
2021/11/28 01:23:46;;;;;;;48.13;29.77;;;8.50;99.90;;;;;;6187102;23;20596;-93
2021/11/28 01:26:13;;;;;;;52.03;30.43;;;8.50;99.90;;;;;;6188345;23;20254;-95
2021/11/28 01:28:40;;;;;;;48.00;29.00;;;8.50;99.90;;;;;;6202544;23;20366;-95
2021/11/28 01:31:06;;;;;;;45.65;29.63;;;8.50;99.90;;;;;;6194184;23;20186;-96
2021/11/28 01:33:41;;;;;;;48.55;29.42;;;8.50;99.90;;;;;;6187117;23;20269;-95
2021/11/28 01:36:07;;;;;;;50.95;31.48;;;8.50;99.90;;;;;;6186947;23;20174;-95
2021/11/28 01:38:33;;;;;;;47.83;28.45;;;8.50;99.90;;;;;;6186972;23;20225;-94
2021/11/28 01:40:58;;;;;;;92.13;43.80;;;8.50;99.90;;;;;;6187243;23;20201;-94
2021/11/28 01:43:24;;;;;;;107.73;47.30;;;8.50;99.90;;;;;;6194466;23;20697;-94
2021/11/28 01:45:52;;;;;;;108.53;50.70;;;8.50;99.90;;;;;;6191614;23;20180;-96
2021/11/28 01:48:20;;;;;;;102.93;47.72;;;8.50;99.90;;;;;;6201384;23;20359;-95
2021/11/28 01:50:50;;;;;;;50.42;29.15;;;8.50;99.90;;;;;;6199939;23;20233;-94
2021/11/28 01:53:20;;;;;;;50.75;30.58;;;8.50;99.90;;;;;;6197548;23;20537;-94
2021/11/28 01:55:47;;;;;;;48.35;30.65;;;8.50;99.90;;;;;;6188102;23;20612;-95
2021/11/28 01:58:13;;;;;;;52.22;31.00;;;8.50;99.90;;;;;;6190128;23;20174;-94
2021/11/28 02:00:46;;;;;;;44.30;28.40;;;8.50;99.90;;;;;;6186918;23;20222;-96
2021/11/28 02:03:15;;;;;;;40.03;25.75;;;8.50;99.90;;;;;;6186843;23;20178;-95
2021/11/28 02:05:45;;;;;;;50.78;30.40;;;8.50;99.90;;;;;;6187388;23;20220;-95
2021/11/28 02:08:11;;;;;;;61.35;38.05;;;8.50;99.90;;;;;;6190752;23;20146;-94
2021/11/28 02:10:36;;;;;;;59.43;35.40;;;8.50;99.90;;;;;;6200126;23;20214;-95
2021/11/28 02:13:03;;;;;;;58.20;34.77;;;8.50;99.90;;;;;;6206782;23;20146;-93
2021/11/28 02:15:29;;;;;;;57.40;35.03;;;8.50;99.90;;;;;;6197357;23;20194;-94
2021/11/28 02:17:56;;;;;;;59.20;36.72;;;8.50;99.90;;;;;;6186567;23;20485;-95
2021/11/28 02:20:26;;;;;;;59.92;38.03;;;8.50;99.90;;;;;;6186373;23;20175;-94
2021/11/28 02:22:53;;;;;;;58.00;36.92;;;8.50;99.90;;;;;;6191691;23;20576;-95
2021/11/28 02:25:19;;;;;;;55.90;34.47;;;8.50;99.90;;;;;;6186787;23;20182;-94
2021/11/28 02:27:45;;;;;;;56.63;35.23;;;8.50;99.90;;;;;;6186687;23;20158;-95
2021/11/28 02:30:13;;;;;;;63.70;35.97;;;8.50;99.90;;;;;;6186547;23;20382;-95
2021/11/28 02:32:39;;;;;;;52.55;34.63;;;8.50;99.90;;;;;;6186771;23;20155;-96
2021/11/28 02:35:05;;;;;;;50.63;32.10;;;8.50;99.90;;;;;;6186508;23;20202;-93
2021/11/28 02:37:34;;;;;;;51.90;34.35;;;8.50;99.90;;;;;;6192208;23;20228;-95
2021/11/28 02:40:00;;;;;;;53.03;32.88;;;8.50;99.90;;;;;;6132248;23;20277;-95
2021/11/28 02:42:25;;;;;;;51.87;34.30;;;8.50;99.90;;;;;;6131987;23;20159;-94
2021/11/28 02:44:53;;;;;;;57.40;36.53;;;8.50;99.90;;;;;;6132292;23;20245;-95
2021/11/28 02:47:22;;;;;;;60.17;40.53;;;8.50;99.90;;;;;;6132684;23;20456;-96
2021/11/28 02:49:48;;;;;;;47.80;29.30;;;8.50;99.90;;;;;;6135881;23;20163;-95
2021/11/28 02:52:14;;;;;;;46.55;29.40;;;8.50;99.90;;;;;;6148348;23;20178;-95
2021/11/28 02:54:40;;;;;;;48.47;30.00;;;8.50;99.90;;;;;;6149265;23;20203;-93
2021/11/28 02:57:10;;;;;;;48.57;29.90;;;8.40;99.90;;;;;;6135621;23;20215;-94
2021/11/28 02:59:36;;;;;;;45.60;29.02;;;8.40;99.90;;;;;;6147021;23;20602;-95
2021/11/28 03:02:03;;;;;;;49.22;29.85;;;8.40;99.90;;;;;;6152291;23;20155;-95
2021/11/28 03:04:29;;;;;;;52.35;31.48;;;8.40;99.90;;;;;;6145046;23;20168;-95
2021/11/28 03:06:55;;;;;;;49.90;29.67;;;8.40;99.90;;;;;;6145312;23;20182;-96
2021/11/28 03:09:21;;;;;;;47.17;28.80;;;8.30;99.90;;;;;;6135429;23;20417;-96
2021/11/28 03:11:48;;;;;;;48.70;29.20;;;8.30;99.90;;;;;;6135680;23;20175;-94
2021/11/28 03:14:14;;;;;;;46.20;28.02;;;8.30;99.90;;;;;;6134716;23;20453;-96
2021/11/28 03:16:39;;;;;;;47.57;29.70;;;8.30;99.90;;;;;;6134975;23;20205;-95
2021/11/28 03:19:05;;;;;;;45.13;27.40;;;8.30;99.90;;;;;;6147786;23;20156;-94
2021/11/28 03:21:33;;;;;;;45.13;29.23;;;8.30;99.90;;;;;;6146786;23;20175;-94
2021/11/28 03:24:02;;;;;;;44.13;26.63;;;8.30;99.90;;;;;;6134707;23;20712;-95
2021/11/28 03:26:39;;;;;;;42.00;28.52;;;8.30;99.90;;;;;;6139933;23;20182;-94
2021/11/28 03:29:08;;;;;;;42.33;25.90;;;8.30;99.90;;;;;;6133109;23;20472;-93
2021/11/28 03:31:38;;;;;;;42.13;26.65;;;8.30;99.90;;;;;;6131706;23;20178;-94
2021/11/28 03:34:05;;;;;;;47.05;26.27;;;8.40;99.90;;;;;;6131804;23;20194;-96
2021/11/28 03:36:33;;;;;;;43.58;27.50;;;8.40;99.90;;;;;;6131453;23;20299;-96
2021/11/28 03:39:00;;;;;;;42.55;26.33;;;8.40;99.90;;;;;;6160966;23;20297;-95
2021/11/28 03:41:29;;;;;;;42.45;27.75;;;8.50;99.90;;;;;;6193000;23;20182;-96
2021/11/28 03:43:56;;;;;;;40.25;26.42;;;8.50;99.90;;;;;;6186128;23;20186;-96
2021/11/28 03:46:23;;;;;;;43.65;25.67;;;8.50;99.90;;;;;;6186486;23;20229;-93
2021/11/28 03:48:48;;;;;;;48.10;27.58;;;8.50;99.90;;;;;;6186294;23;20307;-94
2021/11/28 03:51:15;;;;;;;42.47;27.07;;;8.50;99.90;;;;;;6185915;23;20496;-95
2021/11/28 03:53:42;;;;;;;43.30;27.38;;;8.50;99.90;;;;;;6190127;23;20190;-95
2021/11/28 03:56:08;;;;;;;44.75;29.27;;;8.50;99.90;;;;;;6186696;23;20304;-96
2021/11/28 03:58:36;;;;;;;42.65;26.92;;;8.50;99.90;;;;;;6186192;23;20162;-95
2021/11/28 04:01:04;;;;;;;45.50;26.58;;;8.60;99.90;;;;;;6186201;23;20170;-95
2021/11/28 04:03:30;;;;;;;46.40;27.30;;;8.60;99.90;;;;;;6186243;23;20186;-94
2021/11/28 04:05:58;;;;;;;41.28;26.77;;;8.60;99.90;;;;;;6189990;23;20174;-94
2021/11/28 04:08:24;;;;;;;42.00;27.30;;;8.70;99.90;;;;;;6209797;23;20166;-95
2021/11/28 04:10:51;;;;;;;43.92;27.92;;;8.70;99.90;;;;;;6187323;23;20698;-96
2021/11/28 04:13:17;;;;;;;44.88;27.50;;;8.70;99.90;;;;;;6185586;23;20163;-95
2021/11/28 04:15:43;;;;;;;45.00;28.47;;;8.70;99.90;;;;;;6185942;23;20210;-94
2021/11/28 04:18:09;;;;;;;39.83;25.83;;;8.70;99.90;;;;;;6185857;23;20466;-95
2021/11/28 04:20:35;;;;;;;41.40;24.73;;;8.80;99.90;;;;;;6186188;23;20174;-94
2021/11/28 04:23:02;;;;;;;45.55;28.92;;;8.80;99.90;;;;;;6192716;23;20173;-95
2021/11/28 04:25:30;;;;;;;45.90;27.38;;;8.80;99.90;;;;;;6188684;23;20511;-94
2021/11/28 04:27:56;;;;;;;45.72;26.45;;;8.80;99.90;;;;;;6188379;23;20165;-96
2021/11/28 04:30:23;;;;;;;43.67;27.13;;;8.80;99.90;;;;;;6190334;23;20220;-94
2021/11/28 04:32:49;;;;;;;42.30;25.83;;;8.80;99.90;;;;;;6188841;23;20224;-96
2021/11/28 04:35:15;;;;;;;42.45;24.88;;;8.80;99.90;;;;;;6187208;23;20202;-96
2021/11/28 04:37:41;;;;;;;38.90;23.63;;;8.80;99.90;;;;;;6194741;23;20266;-95
2021/11/28 04:40:09;;;;;;;38.63;22.37;;;8.80;99.90;;;;;;6132903;23;20432;-96
2021/11/28 04:42:35;;;;;;;38.58;24.45;;;8.80;99.90;;;;;;6132808;23;20190;-96
2021/11/28 04:45:01;;;;;;;36.92;24.23;;;8.80;99.90;;;;;;6133126;23;20675;-95
2021/11/28 04:47:27;;;;;;;35.97;21.48;;;8.80;99.90;;;;;;6139726;23;20318;-96
2021/11/28 04:49:53;;;;;;;34.67;21.00;;;8.80;99.90;;;;;;6133247;23;20189;-96
2021/11/28 04:52:20;;;;;;;29.80;18.00;;;8.80;99.90;;;;;;6135638;23;20833;-95
2021/11/28 04:54:46;;;;;;;32.08;20.67;;;8.80;99.90;;;;;;6141760;23;20414;-96
2021/11/28 04:57:14;;;;;;;30.45;19.50;;;8.80;99.90;;;;;;6140860;23;20608;-96
2021/11/28 04:59:40;;;;;;;30.17;18.85;;;8.80;99.90;;;;;;6151179;23;20143;-94
2021/11/28 05:02:07;;;;;;;26.85;16.75;;;8.80;99.90;;;;;;6141217;23;20166;-95
2021/11/28 05:04:33;;;;;;;28.00;17.00;;;8.80;99.90;;;;;;6132826;23;20163;-96
2021/11/28 05:06:59;;;;;;;22.58;14.85;;;8.80;99.90;;;;;;6139612;23;20170;-96
2021/11/28 05:09:26;;;;;;;22.80;14.67;;;8.80;99.90;;;;;;6132924;23;20164;-95
2021/11/28 05:11:52;;;;;;;20.80;14.75;;;8.80;99.90;;;;;;6132915;23;20775;-96
2021/11/28 05:14:19;;;;;;;22.67;15.25;;;8.80;99.90;;;;;;6133329;23;20632;-95
2021/11/28 05:16:46;;;;;;;19.77;13.90;;;8.80;99.90;;;;;;6132882;23;20295;-95
2021/11/28 05:19:11;;;;;;;20.70;13.80;;;8.70;99.90;;;;;;6139704;23;20207;-96
2021/11/28 05:21:37;;;;;;;23.60;13.80;;;8.70;99.90;;;;;;6134996;23;20179;-95
2021/11/28 05:24:04;;;;;;;24.97;14.70;;;8.70;99.90;;;;;;6133482;23;20167;-96
2021/11/28 05:26:30;;;;;;;23.48;13.57;;;8.70;99.90;;;;;;6132980;23;20845;-94
2021/11/28 05:28:56;;;;;;;24.20;14.13;;;8.70;99.90;;;;;;6133262;23;20225;-96
2021/11/28 05:31:21;;;;;;;21.90;13.53;;;8.70;99.90;;;;;;6134765;23;20273;-95
2021/11/28 05:33:49;;;;;;;26.37;13.73;;;8.70;99.90;;;;;;6142057;23;20448;-95
2021/11/28 05:36:15;;;;;;;21.40;15.48;;;8.70;99.90;;;;;;6139489;23;20641;-95
2021/11/28 05:38:42;;;;;;;24.05;14.48;;;8.70;99.90;;;;;;6158583;23;20214;-96
2021/11/28 05:41:09;;;;;;;17.48;12.15;;;8.70;99.90;;;;;;6132723;23;20182;-96
2021/11/28 05:43:38;;;;;;;22.08;13.10;;;8.80;99.90;;;;;;6133007;23;20193;-94
2021/11/28 05:46:04;;;;;;;19.05;11.57;;;8.80;99.90;;;;;;6132673;23;20187;-95
2021/11/28 05:48:30;;;;;;;17.23;11.53;;;8.80;99.90;;;;;;6134917;23;20167;-96
2021/11/28 05:50:58;;;;;;;15.57;10.75;;;8.80;99.90;;;;;;6133702;23;20395;-95
2021/11/28 05:53:24;;;;;;;14.85;9.80;;;8.80;99.90;;;;;;6132144;23;20170;-95
2021/11/28 05:55:51;;;;;;;13.00;9.00;;;8.80;99.90;;;;;;6132627;23;20637;-96
2021/11/28 05:58:20;;;;;;;11.50;8.50;;;8.80;99.90;;;;;;6147182;23;20290;-96
2021/11/28 06:00:49;;;;;;;11.02;7.20;;;8.90;99.90;;;;;;6132910;23;20202;-94
2021/11/28 06:03:15;;;;;;;12.30;7.95;;;8.90;99.90;;;;;;6112360;23;20163;-95
2021/11/28 06:05:43;;;;;;;12.20;8.30;;;8.90;99.90;;;;;;6131616;23;20189;-95
2021/11/28 06:08:09;;;;;;;11.40;7.68;;;8.90;99.90;;;;;;6131420;23;20419;-94
2021/11/28 06:10:35;;;;;;;13.33;8.43;;;8.90;99.90;;;;;;6131698;23;20208;-94
2021/11/28 06:13:01;;;;;;;12.80;8.53;;;8.90;99.90;;;;;;6134426;23;20155;-94
2021/11/28 06:15:27;;;;;;;11.82;9.00;;;8.80;99.90;;;;;;6143765;23;20475;-96
2021/11/28 06:17:53;;;;;;;12.00;8.77;;;8.90;99.90;;;;;;6120840;23;20287;-96
2021/11/28 06:20:19;;;;;;;11.90;8.47;;;8.90;99.90;;;;;;6144242;23;20187;-96
2021/11/28 06:22:45;;;;;;;13.13;9.37;;;8.80;99.90;;;;;;6148868;23;20186;-95
2021/11/28 06:25:12;;;;;;;15.10;9.70;;;8.80;99.90;;;;;;6152917;23;20455;-95
2021/11/28 06:27:39;;;;;;;13.25;9.00;;;8.90;99.90;;;;;;6146171;23;20162;-96
2021/11/28 06:30:07;;;;;;;19.27;10.10;;;8.80;99.90;;;;;;6139885;23;20194;-96
2021/11/28 06:32:34;;;;;;;15.15;9.50;;;8.80;99.90;;;;;;6132209;23;20195;-94
2021/11/28 06:35:00;;;;;;;15.48;10.20;;;8.80;99.90;;;;;;6132390;23;20211;-96
2021/11/28 06:37:26;;;;;;;12.87;9.10;;;8.90;99.90;;;;;;6135267;23;20159;-94
2021/11/28 06:39:52;;;;;;;14.20;9.70;;;8.90;99.90;;;;;;6186147;23;20431;-95
2021/11/28 06:42:18;;;;;;;14.40;9.70;;;8.90;99.90;;;;;;6186739;23;20605;-95
2021/11/28 06:44:44;;;;;;;11.80;8.90;;;9.00;99.90;;;;;;6186281;23;20382;-93
2021/11/28 06:47:11;;;;;;;11.43;8.80;;;9.00;99.90;;;;;;6186415;23;20162;-94
2021/11/28 06:49:38;;;;;;;10.80;8.23;;;9.10;99.90;;;;;;6186199;23;20174;-94
2021/11/28 06:52:04;;;;;;;16.15;10.57;;;9.10;99.90;;;;;;6192932;23;20177;-94
2021/11/28 06:54:30;;;;;;;15.40;9.82;;;9.20;99.90;;;;;;6189108;23;20210;-94
2021/11/28 06:56:56;;;;;;;16.70;11.67;;;9.20;99.90;;;;;;6186284;23;20179;-94
2021/11/28 06:59:26;;;;;;;13.90;9.75;;;9.30;99.90;;;;;;6186396;23;20355;-95
2021/11/28 07:01:52;;;;;;;17.55;9.40;;;9.30;99.90;;;;;;6186503;23;20178;-96
2021/11/28 07:04:18;;;;;;;16.02;10.85;;;9.40;99.90;;;;;;6189690;23;20189;-94
2021/11/28 07:06:44;;;;;;;17.73;10.67;;;9.40;99.90;;;;;;6191240;23;20190;-96
2021/11/28 07:09:10;;;;;;;15.98;10.88;;;9.40;99.90;;;;;;6186565;23;20389;-96
2021/11/28 07:11:36;;;;;;;19.13;10.70;;;9.50;99.90;;;;;;6186570;23;20200;-96
2021/11/28 07:14:03;;;;;;;18.08;11.63;;;9.50;99.90;;;;;;6194369;23;20447;-95
2021/11/28 07:16:29;;;;;;;14.65;10.82;;;9.50;99.90;;;;;;6199249;23;20508;-95
2021/11/28 07:18:54;;;;;;;17.90;12.10;;;9.60;99.90;;;;;;6191223;23;20174;-95
2021/11/28 07:21:20;;;;;;;14.50;11.03;;;9.60;99.90;;;;;;6186586;23;20378;-95
2021/11/28 07:23:47;;;;;;;15.20;10.57;;;9.60;99.90;;;;;;6201829;23;20374;-96
2021/11/28 07:26:13;;;;;;;14.25;9.95;;;9.60;99.90;;;;;;6202455;23;20378;-96
2021/11/28 07:28:42;;;;;;;14.27;11.10;;;9.70;99.90;;;;;;6189997;23;20221;-94
2021/11/28 07:31:08;;;;;;;15.63;11.27;;;9.70;99.90;;;;;;6192400;23;20174;-95
2021/11/28 07:33:37;;;;;;;16.40;11.25;;;9.80;99.90;;;;;;6200338;23;20235;-95
2021/11/28 07:36:08;;;;;;;15.05;9.63;;;9.90;99.90;;;;;;6203329;23;20174;-94
2021/11/28 07:38:35;;;;;;;13.07;8.93;;;10.00;99.90;;;;;;6185837;23;20206;-96
2021/11/28 07:41:02;;;;;;;12.45;9.57;;;10.10;99.90;;;;;;6186092;23;20174;-94
2021/11/28 07:43:28;;;;;;;14.07;10.25;;;10.30;99.90;;;;;;6186404;23;20174;-96
2021/11/28 07:45:54;;;;;;;12.37;9.00;;;10.70;99.90;;;;;;6190336;23;20705;-95
2021/11/28 07:48:21;;;;;;;11.18;8.93;;;11.20;99.90;;;;;;6189696;23;20367;-96
2021/11/28 07:50:49;;;;;;;11.85;8.45;;;11.60;99.90;;;;;;6185944;23;20178;-95
2021/11/28 07:53:15;;;;;;;15.43;9.98;;;11.70;99.90;;;;;;6187917;23;20162;-96
2021/11/28 07:55:42;;;;;;;11.63;8.70;;;11.90;99.90;;;;;;6185592;23;20229;-96
2021/11/28 07:58:08;;;;;;;12.35;8.55;;;12.20;99.90;;;;;;6186464;23;20229;-96
2021/11/28 08:00:35;;;;;;;9.25;8.23;;;12.40;99.90;;;;;;6188236;23;20217;-96
2021/11/28 08:03:01;;;;;;;10.25;7.82;;;12.70;99.90;;;;;;6201896;23;20154;-96
2021/11/28 08:05:30;;;;;;;11.57;8.57;;;12.80;99.90;;;;;;6200407;23;20206;-95
2021/11/28 08:07:56;;;;;;;15.70;12.48;;;12.90;99.90;;;;;;6189647;23;20181;-95
2021/11/28 08:10:22;;;;;;;18.25;11.50;;;12.90;99.90;;;;;;6194668;23;20616;-94
2021/11/28 08:12:48;;;;;;;17.85;11.35;;;12.80;99.90;;;;;;6209249;23;20167;-96
2021/11/28 08:15:18;;;;;;;19.60;11.38;;;12.70;99.90;;;;;;6200088;23;20288;-96
2021/11/28 08:17:46;;;;;;;21.33;12.10;;;12.50;99.90;;;;;;6191503;23;20158;-94
2021/11/28 08:20:13;;;;;;;35.05;18.15;;;12.50;99.90;;;;;;6187955;23;20214;-96
2021/11/28 08:22:39;;;;;;;23.83;14.00;;;12.50;99.90;;;;;;6203622;23;20205;-96
2021/11/28 08:25:09;;;;;;;20.73;12.30;;;12.40;99.90;;;;;;6208079;23;20166;-94
2021/11/28 08:27:35;;;;;;;19.80;13.23;;;12.50;99.90;;;;;;6194073;23;20166;-96
2021/11/28 08:30:05;;;;;;;20.57;13.80;;;12.50;99.90;;;;;;6188257;23;20221;-92
2021/11/28 08:32:31;;;;;;;18.83;11.90;;;12.80;99.90;;;;;;6188235;23;20388;-95
2021/11/28 08:34:57;;;;;;;15.13;10.80;;;13.40;99.90;;;;;;6191904;23;20459;-95
2021/11/28 08:37:24;;;;;;;25.77;13.47;;;14.10;99.90;;;;;;6192470;23;20434;-95
2021/11/28 08:39:51;;;;;;;25.30;13.10;;;14.90;99.90;;;;;;6197328;23;20461;-95
2021/11/28 08:42:17;;;;;;;22.87;12.10;;;15.60;99.90;;;;;;6195725;23;20396;-94
2021/11/28 08:44:43;;;;;;;17.57;11.03;;;16.20;99.90;;;;;;6197729;23;20385;-96
2021/11/28 08:47:09;;;;;;;16.27;11.03;;;16.50;99.90;;;;;;6189282;23;20453;-94
2021/11/28 08:49:35;;;;;;;14.27;10.90;;;16.80;99.90;;;;;;6190732;23;20400;-95
2021/11/28 08:52:02;;;;;;;12.83;10.90;;;17.30;99.90;;;;;;6197745;23;20706;-96
2021/11/28 08:54:30;;;;;;;12.17;8.83;;;17.60;99.90;;;;;;6196185;23;20795;-96
2021/11/28 08:56:58;;;;;;;14.10;10.63;;;17.70;99.90;;;;;;6188101;23;20900;-94
2021/11/28 08:59:26;;;;;;;22.50;14.97;;;17.80;99.90;;;;;;6199112;23;20451;-95
2021/11/28 09:01:52;;;;;;;18.03;13.73;;;17.50;99.90;;;;;;6205136;23;20412;-93
2021/11/28 09:04:18;;;;;;;18.77;13.00;;;17.30;99.90;;;;;;6199723;23;20458;-92
2021/11/28 09:06:45;;;;;;;24.73;15.43;;;17.00;99.90;;;;;;6192310;23;20515;-93
2021/11/28 09:09:11;;;;;;;13.93;11.70;;;16.90;99.90;;;;;;6187965;23;20793;-94
2021/11/28 09:11:37;;;;;;;16.33;12.30;;;16.90;99.90;;;;;;6190111;23;20495;-95
2021/11/28 09:14:12;;;;;;;14.47;11.80;;;16.90;99.90;;;;;;6191054;23;20440;-95
2021/11/28 09:16:39;;;;;;;16.70;13.00;;;16.80;99.90;;;;;;6188940;23;20400;-95
2021/11/28 09:19:11;;;;;;;15.50;13.47;;;16.80;99.90;;;;;;6188036;23;20428;-95
2021/11/28 09:21:39;;;;;;;17.80;13.27;;;16.70;99.90;;;;;;6187422;23;20408;-95
2021/11/28 09:24:36;;;;;;;17.13;14.10;;;16.70;99.90;;;;;;6187512;23;20451;-96
2021/11/28 09:27:06;;;;;;;17.23;14.60;;;16.80;99.90;;;;;;6189713;23;20932;-93
2021/11/28 09:29:37;;;;;;;16.57;14.67;;;17.00;99.90;;;;;;6187756;23;20453;-93
2021/11/28 09:32:04;;;;;;;16.33;13.37;;;17.20;99.90;;;;;;6187661;23;20387;-94
2021/11/28 09:34:33;;;;;;;17.80;14.43;;;17.50;99.90;;;;;;6187764;23;20539;-94
2021/11/28 09:37:00;;;;;;;15.63;13.90;;;17.70;99.90;;;;;;6195303;23;20408;-95
2021/11/28 09:39:27;;;;;;;18.73;14.90;;;17.60;99.90;;;;;;6205833;23;20444;-94
2021/11/28 09:42:03;;;;;;;17.77;13.27;;;17.50;99.90;;;;;;6204993;23;20440;-95
2021/11/28 09:44:33;;;;;;;18.83;15.10;;;17.40;99.90;;;;;;6187968;23;20530;-94
2021/11/28 09:46:59;;;;;;;19.60;15.00;;;17.40;99.90;;;;;;6188031;23;20475;-95
2021/11/28 09:49:27;;;;;;;17.57;13.60;;;17.40;99.90;;;;;;6187384;23;20454;-94
2021/11/28 09:52:01;;;;;;;15.00;13.40;;;17.60;99.90;;;;;;6190089;23;20409;-95
2021/11/28 09:54:28;;;;;;;20.27;14.77;;;17.50;99.90;;;;;;6187581;23;20463;-94
2021/11/28 09:56:54;;;;;;;17.17;14.57;;;17.30;99.90;;;;;;6186890;23;20442;-94
2021/11/28 09:59:21;;;;;;;19.00;13.43;;;17.20;99.90;;;;;;6187098;23;20488;-93
2021/11/28 10:01:48;;;;;;;16.60;13.87;;;17.00;99.90;;;;;;6187056;23;20535;-96
2021/11/28 10:04:15;;;;;;;16.97;14.53;;;17.00;99.90;;;;;;6193286;23;20390;-93
2021/11/28 10:06:41;;;;;;;16.53;12.70;;;16.90;99.90;;;;;;6187027;23;20495;-95
2021/11/28 10:09:08;;;;;;;14.37;12.37;;;16.70;99.90;;;;;;6188023;23;20392;-95
2021/11/28 10:11:40;;;;;;;16.80;13.03;;;16.60;99.90;;;;;;6190060;23;20178;-95
2021/11/28 10:14:11;;;;;;;19.60;15.37;;;16.30;99.90;;;;;;6199509;23;20752;-95
2021/11/28 10:16:37;;;;;;;16.90;13.10;;;16.10;99.90;;;;;;6189368;23;20471;-96
2021/11/28 10:19:06;;;;;;;20.47;14.80;;;16.00;99.90;;;;;;6187288;23;20592;-95
2021/11/28 10:21:33;;;;;;;16.80;13.60;;;15.90;99.90;;;;;;6194903;23;20412;-94
2021/11/28 10:24:12;;;;;;;15.07;12.70;;;15.70;99.90;;;;;;6186655;23;20404;-95
2021/11/28 10:26:55;;;;;;;16.83;13.30;;;15.50;99.90;;;;;;6187059;23;20412;-94
2021/11/28 10:29:29;;;;;;;17.23;14.80;;;15.30;99.90;;;;;;6189149;23;20464;-94
2021/11/28 10:31:58;;;;;;;18.40;13.93;;;15.30;99.90;;;;;;6190663;23;20391;-95
2021/11/28 10:34:31;;;;;;;18.87;14.27;;;15.20;99.90;;;;;;6210552;23;20466;-94
2021/11/28 10:37:10;;;;;;;16.40;13.37;;;15.20;99.90;;;;;;6192528;23;20392;-94
2021/11/28 10:39:38;;;;;;;16.83;13.40;;;15.10;99.90;;;;;;6186303;23;20479;-95
2021/11/28 10:42:05;;;;;;;17.43;13.70;;;15.10;99.90;;;;;;6186762;23;20373;-96
2021/11/28 10:44:31;;;;;;;14.53;11.70;;;15.10;99.90;;;;;;6187201;23;20403;-95
2021/11/28 10:47:12;;;;;;;16.50;12.17;;;15.10;99.90;;;;;;6194584;23;20767;-96
2021/11/28 10:49:40;;;;;;;32.80;26.03;;;15.00;99.90;;;;;;6186313;23;20717;-95
2021/11/28 10:52:18;;;;;;;30.60;24.90;;;14.90;99.90;;;;;;6186695;23;20385;-95
2021/11/28 10:54:45;;;;;;;20.57;15.60;;;14.80;99.90;;;;;;6186713;23;20475;-95
2021/11/28 10:57:13;;;;;;;19.80;14.60;;;14.80;99.90;;;;;;6186448;23;20731;-95
2021/11/28 10:59:57;;;;;;;19.93;16.90;;;14.80;99.90;;;;;;6189232;23;20429;-95
2021/11/28 11:02:37;;;;;;;16.23;13.30;;;14.80;99.90;;;;;;6187248;23;20396;-95
2021/11/28 11:05:06;;;;;;;17.03;13.60;;;14.70;99.90;;;;;;6186175;23;20511;-94
2021/11/28 11:07:51;;;;;;;16.90;13.20;;;14.70;99.90;;;;;;6186578;23;20442;-96
2021/11/28 11:10:20;;;;;;;16.80;12.53;;;14.70;99.90;;;;;;6186048;23;20872;-94
2021/11/28 11:12:47;;;;;;;15.50;12.03;;;14.60;99.90;;;;;;6191827;23;20380;-95
2021/11/28 11:15:29;;;;;;;13.50;10.70;;;14.50;99.90;;;;;;6187511;23;20459;-96
2021/11/28 11:17:57;;;;;;;12.70;10.00;;;14.50;99.90;;;;;;6186263;23;20411;-96
2021/11/28 11:20:31;;;;;;;15.17;11.93;;;14.50;99.90;;;;;;6196543;23;20417;-94
2021/11/28 11:22:57;;;;;;;15.13;11.90;;;14.40;99.90;;;;;;6203553;23;20373;-93
2021/11/28 11:25:36;;;;;;;15.27;12.57;;;14.30;99.90;;;;;;6188893;23;20449;-93
2021/11/28 11:28:14;;;;;;;14.80;11.40;;;14.30;99.90;;;;;;6190413;23;20371;-95
2021/11/28 11:30:41;;;;;;;11.93;10.50;;;14.20;99.90;;;;;;6186625;23;20905;-93
2021/11/28 11:33:10;;;;;;;12.93;10.43;;;14.20;99.90;;;;;;6188450;23;20690;-96
2021/11/28 11:35:43;;;;;;;12.20;10.57;;;14.10;99.90;;;;;;6190140;23;20538;-95
2021/11/28 11:38:16;;;;;;;12.13;10.93;;;14.00;99.90;;;;;;6191582;23;20464;-93
2021/11/28 11:40:43;;;;;;;13.63;10.73;;;13.90;99.90;;;;;;6195636;23;20408;-95
2021/11/28 11:43:09;;;;;;;14.07;11.30;;;13.90;99.90;;;;;;6192117;23;20911;-95
2021/11/28 11:45:37;;;;;;;13.43;12.10;;;13.90;99.90;;;;;;6191459;23;20419;-96
2021/11/28 11:48:06;;;;;;;12.90;11.50;;;13.90;99.90;;;;;;6203099;23;20433;-96
2021/11/28 11:50:35;;;;;;;17.60;14.40;;;14.00;99.90;;;;;;6203585;23;20400;-95
2021/11/28 11:53:04;;;;;;;16.20;12.97;;;14.00;99.90;;;;;;6205132;23;20359;-94
2021/11/28 11:55:42;;;;;;;15.00;13.40;;;14.00;99.90;;;;;;6199410;23;20426;-94
2021/11/28 11:58:30;;;;;;;28.53;20.40;;;14.10;99.90;;;;;;6185579;23;20365;-95
2021/11/28 12:01:08;;;;;;;18.20;14.50;;;14.10;99.90;;;;;;6185369;23;20830;-95
2021/11/28 12:03:54;;;;;;;20.43;16.57;;;14.10;99.90;;;;;;6185410;23;20396;-93
2021/11/28 12:06:44;;;;;;;13.47;10.87;;;14.10;99.90;;;;;;6185772;23;20442;-94
2021/11/28 12:09:31;;;;;;;14.30;12.80;;;14.10;99.90;;;;;;6190409;23;20407;-96
2021/11/28 12:11:59;;;;;;;17.20;11.13;;;14.10;99.90;;;;;;6185769;23;20883;-95
2021/11/28 12:14:25;;;;;;;12.67;9.00;;;14.10;99.90;;;;;;6185881;23;20413;-92
2021/11/28 12:16:52;;;;;;;10.33;8.53;;;14.10;99.90;;;;;;6190901;23;20385;-94
2021/11/28 12:19:41;;;;;;;10.40;9.30;;;14.10;99.90;;;;;;6187533;23;20491;-93
2021/11/28 12:22:27;;;;;;;13.33;11.27;;;14.10;99.90;;;;;;6185324;23;20355;-93
2021/11/28 12:24:53;;;;;;;12.57;10.50;;;14.10;99.90;;;;;;6184742;23;20383;-93
2021/11/28 12:27:38;;;;;;;16.03;10.37;;;14.10;99.90;;;;;;6185461;23;20446;-95
2021/11/28 12:30:34;;;;;;;13.47;9.77;;;14.00;99.90;;;;;;6184505;23;20434;-93
2021/11/28 12:33:00;;;;;;;14.07;10.77;;;14.00;99.90;;;;;;6192810;23;20359;-94
2021/11/28 12:35:40;;;;;;;11.10;9.90;;;14.00;99.90;;;;;;6194081;23;20447;-95
2021/11/28 12:38:06;;;;;;;11.20;9.53;;;14.00;99.90;;;;;;6197644;23;20433;-93
2021/11/28 12:40:35;;;;;;;13.13;10.07;;;14.00;99.90;;;;;;6193136;23;20752;-95
2021/11/28 12:43:20;;;;;;;13.00;8.47;;;14.00;99.90;;;;;;6184859;23;20468;-94